sensor_id;sensor_type;location;lat;lon;timestamp;P1;durP1;ratioP1;P2;durP2;ratioP2
38972;SDS011;25333;50.762;4.470;2023-06-10T00:00:12;6.17;;;5.63;;
38972;SDS011;25333;50.762;4.470;2023-06-10T00:02:40;7.47;;;6.32;;
38972;SDS011;25333;50.762;4.470;2023-06-10T00:05:06;6.60;;;5.90;;
38972;SDS011;25333;50.762;4.470;2023-06-10T00:07:32;6.90;;;5.88;;
38972;SDS011;25333;50.762;4.470;2023-06-10T00:09:59;7.00;;;6.30;;
38972;SDS011;25333;50.762;4.470;2023-06-10T00:12:25;7.53;;;6.72;;
38972;SDS011;25333;50.762;4.470;2023-06-10T00:14:50;9.07;;;6.93;;
38972;SDS011;25333;50.762;4.470;2023-06-10T00:17:18;6.50;;;5.90;;
38972;SDS011;25333;50.762;4.470;2023-06-10T00:19:44;7.10;;;6.27;;
38972;SDS011;25333;50.762;4.470;2023-06-10T00:22:11;7.60;;;6.60;;
38972;SDS011;25333;50.762;4.470;2023-06-10T00:24:37;7.55;;;6.85;;
38972;SDS011;25333;50.762;4.470;2023-06-10T00:27:04;7.40;;;6.50;;
38972;SDS011;25333;50.762;4.470;2023-06-10T00:29:32;7.88;;;6.35;;
38972;SDS011;25333;50.762;4.470;2023-06-10T00:31:58;7.13;;;6.25;;
38972;SDS011;25333;50.762;4.470;2023-06-10T00:34:24;7.00;;;6.30;;
38972;SDS011;25333;50.762;4.470;2023-06-10T00:36:49;6.88;;;6.28;;
38972;SDS011;25333;50.762;4.470;2023-06-10T00:39:15;8.13;;;7.32;;
38972;SDS011;25333;50.762;4.470;2023-06-10T00:41:41;7.60;;;6.80;;
38972;SDS011;25333;50.762;4.470;2023-06-10T00:44:07;8.55;;;6.75;;
38972;SDS011;25333;50.762;4.470;2023-06-10T00:46:33;6.43;;;5.73;;
38972;SDS011;25333;50.762;4.470;2023-06-10T00:48:59;6.78;;;6.07;;
38972;SDS011;25333;50.762;4.470;2023-06-10T00:51:25;7.00;;;6.30;;
38972;SDS011;25333;50.762;4.470;2023-06-10T00:53:52;8.20;;;6.70;;
38972;SDS011;25333;50.762;4.470;2023-06-10T00:56:18;8.75;;;6.95;;
38972;SDS011;25333;50.762;4.470;2023-06-10T00:58:43;8.02;;;7.22;;
38972;SDS011;25333;50.762;4.470;2023-06-10T01:01:10;8.55;;;7.10;;
38972;SDS011;25333;50.762;4.470;2023-06-10T01:03:36;7.13;;;6.43;;
38972;SDS011;25333;50.762;4.470;2023-06-10T01:06:14;9.63;;;8.10;;
38972;SDS011;25333;50.762;4.470;2023-06-10T01:08:52;9.50;;;7.43;;
38972;SDS011;25333;50.762;4.470;2023-06-10T01:11:43;7.37;;;6.53;;
38972;SDS011;25333;50.762;4.470;2023-06-10T01:14:13;8.48;;;7.22;;
38972;SDS011;25333;50.762;4.470;2023-06-10T01:16:42;7.68;;;6.97;;
38972;SDS011;25333;50.762;4.470;2023-06-10T01:19:11;7.32;;;6.40;;
38972;SDS011;25333;50.762;4.470;2023-06-10T01:21:38;8.25;;;7.43;;
38972;SDS011;25333;50.762;4.470;2023-06-10T01:24:04;7.55;;;6.80;;
38972;SDS011;25333;50.762;4.470;2023-06-10T01:26:33;8.55;;;7.85;;
38972;SDS011;25333;50.762;4.470;2023-06-10T01:29:11;7.97;;;7.00;;
38972;SDS011;25333;50.762;4.470;2023-06-10T01:31:44;8.85;;;7.57;;
38972;SDS011;25333;50.762;4.470;2023-06-10T01:34:17;9.27;;;7.40;;
38972;SDS011;25333;50.762;4.470;2023-06-10T01:36:47;8.10;;;7.30;;
38972;SDS011;25333;50.762;4.470;2023-06-10T01:39:14;8.32;;;7.00;;
38972;SDS011;25333;50.762;4.470;2023-06-10T01:41:42;7.53;;;6.70;;
38972;SDS011;25333;50.762;4.470;2023-06-10T01:44:09;8.10;;;6.88;;
38972;SDS011;25333;50.762;4.470;2023-06-10T01:46:35;10.07;;;7.53;;
38972;SDS011;25333;50.762;4.470;2023-06-10T01:49:01;10.18;;;8.05;;
38972;SDS011;25333;50.762;4.470;2023-06-10T01:51:27;8.27;;;7.47;;
38972;SDS011;25333;50.762;4.470;2023-06-10T01:53:52;7.97;;;6.72;;
38972;SDS011;25333;50.762;4.470;2023-06-10T01:56:18;9.33;;;7.47;;
38972;SDS011;25333;50.762;4.470;2023-06-10T01:58:47;7.57;;;6.78;;
38972;SDS011;25333;50.762;4.470;2023-06-10T02:01:13;8.82;;;6.63;;
38972;SDS011;25333;50.762;4.470;2023-06-10T02:03:39;8.30;;;7.50;;
38972;SDS011;25333;50.762;4.470;2023-06-10T02:06:05;9.18;;;7.55;;
38972;SDS011;25333;50.762;4.470;2023-06-10T02:08:30;8.00;;;7.20;;
38972;SDS011;25333;50.762;4.470;2023-06-10T02:10:56;8.75;;;7.93;;
38972;SDS011;25333;50.762;4.470;2023-06-10T02:13:22;9.52;;;7.72;;
38972;SDS011;25333;50.762;4.470;2023-06-10T02:15:47;8.90;;;7.78;;
38972;SDS011;25333;50.762;4.470;2023-06-10T02:18:13;8.43;;;7.53;;
38972;SDS011;25333;50.762;4.470;2023-06-10T02:20:38;8.87;;;7.33;;
38972;SDS011;25333;50.762;4.470;2023-06-10T02:23:04;7.70;;;6.90;;
38972;SDS011;25333;50.762;4.470;2023-06-10T02:25:30;8.45;;;7.60;;
38972;SDS011;25333;50.762;4.470;2023-06-10T02:27:55;7.07;;;6.33;;
38972;SDS011;25333;50.762;4.470;2023-06-10T02:30:21;8.63;;;7.78;;
38972;SDS011;25333;50.762;4.470;2023-06-10T02:32:47;8.63;;;7.70;;
38972;SDS011;25333;50.762;4.470;2023-06-10T02:35:14;9.73;;;8.35;;
38972;SDS011;25333;50.762;4.470;2023-06-10T02:37:40;7.83;;;7.03;;
38972;SDS011;25333;50.762;4.470;2023-06-10T02:40:06;8.73;;;7.75;;
38972;SDS011;25333;50.762;4.470;2023-06-10T02:42:33;8.77;;;7.88;;
38972;SDS011;25333;50.762;4.470;2023-06-10T02:44:59;8.60;;;6.93;;
38972;SDS011;25333;50.762;4.470;2023-06-10T02:47:25;8.85;;;7.95;;
38972;SDS011;25333;50.762;4.470;2023-06-10T02:49:51;11.20;;;8.53;;
38972;SDS011;25333;50.762;4.470;2023-06-10T02:52:17;9.50;;;8.27;;
38972;SDS011;25333;50.762;4.470;2023-06-10T02:54:42;9.05;;;8.15;;
38972;SDS011;25333;50.762;4.470;2023-06-10T02:57:08;8.68;;;7.75;;
38972;SDS011;25333;50.762;4.470;2023-06-10T02:59:35;8.63;;;7.80;;
38972;SDS011;25333;50.762;4.470;2023-06-10T03:02:01;10.50;;;7.97;;
38972;SDS011;25333;50.762;4.470;2023-06-10T03:04:26;9.33;;;7.80;;
38972;SDS011;25333;50.762;4.470;2023-06-10T03:06:54;9.07;;;7.70;;
38972;SDS011;25333;50.762;4.470;2023-06-10T03:09:19;9.63;;;8.37;;
38972;SDS011;25333;50.762;4.470;2023-06-10T03:11:45;9.38;;;8.43;;
38972;SDS011;25333;50.762;4.470;2023-06-10T03:14:11;9.30;;;8.30;;
38972;SDS011;25333;50.762;4.470;2023-06-10T03:16:36;9.53;;;8.07;;
38972;SDS011;25333;50.762;4.470;2023-06-10T03:19:06;11.60;;;9.10;;
38972;SDS011;25333;50.762;4.470;2023-06-10T03:21:32;8.63;;;7.82;;
38972;SDS011;25333;50.762;4.470;2023-06-10T03:23:59;10.57;;;9.23;;
38972;SDS011;25333;50.762;4.470;2023-06-10T03:26:25;8.65;;;7.75;;
38972;SDS011;25333;50.762;4.470;2023-06-10T03:28:52;9.65;;;8.77;;
38972;SDS011;25333;50.762;4.470;2023-06-10T03:31:18;9.73;;;8.73;;
38972;SDS011;25333;50.762;4.470;2023-06-10T03:33:44;10.13;;;8.60;;
38972;SDS011;25333;50.762;4.470;2023-06-10T03:36:09;9.70;;;8.03;;
38972;SDS011;25333;50.762;4.470;2023-06-10T03:38:35;8.55;;;7.75;;
38972;SDS011;25333;50.762;4.470;2023-06-10T03:41:01;8.55;;;7.65;;
38972;SDS011;25333;50.762;4.470;2023-06-10T03:43:27;11.90;;;8.68;;
38972;SDS011;25333;50.762;4.470;2023-06-10T03:45:53;9.60;;;8.60;;
38972;SDS011;25333;50.762;4.470;2023-06-10T03:48:18;8.50;;;7.60;;
38972;SDS011;25333;50.762;4.470;2023-06-10T03:50:44;10.07;;;8.52;;
38972;SDS011;25333;50.762;4.470;2023-06-10T03:53:12;9.77;;;8.80;;
38972;SDS011;25333;50.762;4.470;2023-06-10T03:55:38;9.60;;;8.57;;
38972;SDS011;25333;50.762;4.470;2023-06-10T03:58:03;9.23;;;8.40;;
38972;SDS011;25333;50.762;4.470;2023-06-10T04:00:29;10.38;;;9.07;;
38972;SDS011;25333;50.762;4.470;2023-06-10T04:02:55;10.63;;;8.97;;
38972;SDS011;25333;50.762;4.470;2023-06-10T04:05:23;9.98;;;8.55;;
38972;SDS011;25333;50.762;4.470;2023-06-10T04:07:48;9.05;;;8.15;;
38972;SDS011;25333;50.762;4.470;2023-06-10T04:10:14;10.67;;;8.60;;
38972;SDS011;25333;50.762;4.470;2023-06-10T04:12:40;10.55;;;9.02;;
38972;SDS011;25333;50.762;4.470;2023-06-10T04:15:06;8.93;;;7.97;;
38972;SDS011;25333;50.762;4.470;2023-06-10T04:17:33;10.00;;;8.57;;
38972;SDS011;25333;50.762;4.470;2023-06-10T04:19:58;9.57;;;8.57;;
38972;SDS011;25333;50.762;4.470;2023-06-10T04:22:25;10.32;;;8.48;;
38972;SDS011;25333;50.762;4.470;2023-06-10T04:24:51;9.05;;;8.15;;
38972;SDS011;25333;50.762;4.470;2023-06-10T04:27:17;10.30;;;8.77;;
38972;SDS011;25333;50.762;4.470;2023-06-10T04:29:43;10.38;;;8.60;;
38972;SDS011;25333;50.762;4.470;2023-06-10T04:32:08;8.80;;;7.87;;
38972;SDS011;25333;50.762;4.470;2023-06-10T04:34:34;9.40;;;8.23;;
38972;SDS011;25333;50.762;4.470;2023-06-10T04:37:00;10.30;;;8.05;;
38972;SDS011;25333;50.762;4.470;2023-06-10T04:39:25;9.50;;;8.50;;
38972;SDS011;25333;50.762;4.470;2023-06-10T04:41:51;9.53;;;8.53;;
38972;SDS011;25333;50.762;4.470;2023-06-10T04:44:17;9.13;;;8.23;;
38972;SDS011;25333;50.762;4.470;2023-06-10T04:46:43;9.57;;;8.32;;
38972;SDS011;25333;50.762;4.470;2023-06-10T04:49:09;9.37;;;8.23;;
38972;SDS011;25333;50.762;4.470;2023-06-10T04:51:35;10.20;;;8.03;;
38972;SDS011;25333;50.762;4.470;2023-06-10T04:54:00;9.05;;;8.00;;
38972;SDS011;25333;50.762;4.470;2023-06-10T04:56:29;9.10;;;8.07;;
38972;SDS011;25333;50.762;4.470;2023-06-10T04:58:56;10.07;;;8.57;;
38972;SDS011;25333;50.762;4.470;2023-06-10T05:01:22;10.70;;;8.90;;
38972;SDS011;25333;50.762;4.470;2023-06-10T05:03:48;10.40;;;9.13;;
38972;SDS011;25333;50.762;4.470;2023-06-10T05:06:13;9.68;;;8.75;;
38972;SDS011;25333;50.762;4.470;2023-06-10T05:08:39;8.87;;;8.07;;
38972;SDS011;25333;50.762;4.470;2023-06-10T05:11:05;9.50;;;8.53;;
38972;SDS011;25333;50.762;4.470;2023-06-10T05:13:31;11.63;;;8.85;;
38972;SDS011;25333;50.762;4.470;2023-06-10T05:15:57;11.25;;;9.57;;
38972;SDS011;25333;50.762;4.470;2023-06-10T05:18:23;9.87;;;8.87;;
38972;SDS011;25333;50.762;4.470;2023-06-10T05:20:48;11.80;;;9.77;;
38972;SDS011;25333;50.762;4.470;2023-06-10T05:23:14;9.50;;;8.60;;
38972;SDS011;25333;50.762;4.470;2023-06-10T05:25:40;9.52;;;8.63;;
38972;SDS011;25333;50.762;4.470;2023-06-10T05:28:06;9.88;;;8.63;;
38972;SDS011;25333;50.762;4.470;2023-06-10T05:30:34;12.23;;;9.27;;
38972;SDS011;25333;50.762;4.470;2023-06-10T05:33:01;10.47;;;9.37;;
38972;SDS011;25333;50.762;4.470;2023-06-10T05:35:26;9.65;;;8.65;;
38972;SDS011;25333;50.762;4.470;2023-06-10T05:37:52;10.70;;;8.75;;
38972;SDS011;25333;50.762;4.470;2023-06-10T05:40:17;10.10;;;9.05;;
38972;SDS011;25333;50.762;4.470;2023-06-10T05:42:43;9.80;;;8.35;;
38972;SDS011;25333;50.762;4.470;2023-06-10T05:45:09;8.20;;;7.30;;
38972;SDS011;25333;50.762;4.470;2023-06-10T05:47:35;9.10;;;8.20;;
38972;SDS011;25333;50.762;4.470;2023-06-10T05:50:00;9.18;;;8.10;;
38972;SDS011;25333;50.762;4.470;2023-06-10T05:52:26;9.50;;;8.55;;
38972;SDS011;25333;50.762;4.470;2023-06-10T05:54:52;9.00;;;8.10;;
38972;SDS011;25333;50.762;4.470;2023-06-10T05:57:19;9.50;;;8.27;;
38972;SDS011;25333;50.762;4.470;2023-06-10T05:59:45;9.82;;;8.35;;
38972;SDS011;25333;50.762;4.470;2023-06-10T06:02:10;10.80;;;8.43;;
38972;SDS011;25333;50.762;4.470;2023-06-10T06:04:36;8.43;;;7.47;;
38972;SDS011;25333;50.762;4.470;2023-06-10T06:07:01;9.63;;;8.63;;
38972;SDS011;25333;50.762;4.470;2023-06-10T06:09:27;8.97;;;7.90;;
38972;SDS011;25333;50.762;4.470;2023-06-10T06:11:52;11.27;;;8.27;;
38972;SDS011;25333;50.762;4.470;2023-06-10T06:14:18;9.03;;;8.00;;
38972;SDS011;25333;50.762;4.470;2023-06-10T06:16:44;9.23;;;8.15;;
38972;SDS011;25333;50.762;4.470;2023-06-10T06:19:09;11.60;;;8.77;;
38972;SDS011;25333;50.762;4.470;2023-06-10T06:21:36;8.25;;;7.45;;
38972;SDS011;25333;50.762;4.470;2023-06-10T06:24:01;7.70;;;6.83;;
38972;SDS011;25333;50.762;4.470;2023-06-10T06:26:27;7.43;;;6.63;;
38972;SDS011;25333;50.762;4.470;2023-06-10T06:28:53;8.27;;;7.17;;
38972;SDS011;25333;50.762;4.470;2023-06-10T06:31:18;9.17;;;8.27;;
38972;SDS011;25333;50.762;4.470;2023-06-10T06:33:44;8.40;;;7.53;;
38972;SDS011;25333;50.762;4.470;2023-06-10T06:36:09;8.13;;;7.17;;
38972;SDS011;25333;50.762;4.470;2023-06-10T06:38:35;7.32;;;6.53;;
38972;SDS011;25333;50.762;4.470;2023-06-10T06:41:01;8.30;;;7.50;;
38972;SDS011;25333;50.762;4.470;2023-06-10T06:43:28;10.20;;;8.00;;
38972;SDS011;25333;50.762;4.470;2023-06-10T06:45:56;7.23;;;6.33;;
38972;SDS011;25333;50.762;4.470;2023-06-10T06:48:22;7.15;;;6.45;;
38972;SDS011;25333;50.762;4.470;2023-06-10T06:50:48;7.40;;;6.60;;
38972;SDS011;25333;50.762;4.470;2023-06-10T06:53:13;10.17;;;7.07;;
38972;SDS011;25333;50.762;4.470;2023-06-10T06:55:39;8.82;;;7.93;;
38972;SDS011;25333;50.762;4.470;2023-06-10T06:58:05;8.52;;;7.25;;
38972;SDS011;25333;50.762;4.470;2023-06-10T07:00:30;8.02;;;7.07;;
38972;SDS011;25333;50.762;4.470;2023-06-10T07:02:57;7.03;;;6.30;;
38972;SDS011;25333;50.762;4.470;2023-06-10T07:05:23;11.02;;;7.22;;
38972;SDS011;25333;50.762;4.470;2023-06-10T07:07:52;8.25;;;7.45;;
38972;SDS011;25333;50.762;4.470;2023-06-10T07:10:20;7.20;;;6.25;;
38972;SDS011;25333;50.762;4.470;2023-06-10T07:12:47;7.07;;;6.10;;
38972;SDS011;25333;50.762;4.470;2023-06-10T07:15:13;7.73;;;6.73;;
38972;SDS011;25333;50.762;4.470;2023-06-10T07:17:38;7.73;;;6.63;;
38972;SDS011;25333;50.762;4.470;2023-06-10T07:20:04;8.97;;;7.03;;
38972;SDS011;25333;50.762;4.470;2023-06-10T07:22:30;8.40;;;6.68;;
38972;SDS011;25333;50.762;4.470;2023-06-10T07:24:56;8.43;;;6.85;;
38972;SDS011;25333;50.762;4.470;2023-06-10T07:27:22;7.88;;;6.57;;
38972;SDS011;25333;50.762;4.470;2023-06-10T07:29:48;6.10;;;5.47;;
38972;SDS011;25333;50.762;4.470;2023-06-10T07:32:13;12.43;;;7.07;;
38972;SDS011;25333;50.762;4.470;2023-06-10T07:34:39;7.18;;;5.63;;
38972;SDS011;25333;50.762;4.470;2023-06-10T07:37:05;6.10;;;5.47;;
38972;SDS011;25333;50.762;4.470;2023-06-10T07:39:30;6.72;;;6.05;;
38972;SDS011;25333;50.762;4.470;2023-06-10T07:41:56;7.18;;;6.05;;
38972;SDS011;25333;50.762;4.470;2023-06-10T07:44:22;7.70;;;5.28;;
38972;SDS011;25333;50.762;4.470;2023-06-10T07:46:48;7.18;;;5.95;;
38972;SDS011;25333;50.762;4.470;2023-06-10T07:49:14;7.60;;;6.13;;
38972;SDS011;25333;50.762;4.470;2023-06-10T07:51:40;7.13;;;6.38;;
38972;SDS011;25333;50.762;4.470;2023-06-10T07:54:05;6.37;;;5.80;;
38972;SDS011;25333;50.762;4.470;2023-06-10T07:56:31;8.70;;;5.87;;
38972;SDS011;25333;50.762;4.470;2023-06-10T07:58:57;6.70;;;5.87;;
38972;SDS011;25333;50.762;4.470;2023-06-10T08:01:22;7.80;;;5.90;;
38972;SDS011;25333;50.762;4.470;2023-06-10T08:03:51;8.35;;;6.32;;
38972;SDS011;25333;50.762;4.470;2023-06-10T08:06:17;7.47;;;6.43;;
38972;SDS011;25333;50.762;4.470;2023-06-10T08:08:42;7.47;;;5.57;;
38972;SDS011;25333;50.762;4.470;2023-06-10T08:11:10;9.45;;;6.05;;
38972;SDS011;25333;50.762;4.470;2023-06-10T08:13:36;6.50;;;5.50;;
38972;SDS011;25333;50.762;4.470;2023-06-10T08:16:02;6.43;;;5.22;;
38972;SDS011;25333;50.762;4.470;2023-06-10T08:18:28;8.07;;;6.13;;
38972;SDS011;25333;50.762;4.470;2023-06-10T08:20:54;6.37;;;5.57;;
38972;SDS011;25333;50.762;4.470;2023-06-10T08:23:20;5.47;;;4.97;;
38972;SDS011;25333;50.762;4.470;2023-06-10T08:25:45;6.68;;;5.88;;
38972;SDS011;25333;50.762;4.470;2023-06-10T08:28:11;6.18;;;5.57;;
38972;SDS011;25333;50.762;4.470;2023-06-10T08:30:36;6.80;;;5.60;;
38972;SDS011;25333;50.762;4.470;2023-06-10T08:33:02;7.67;;;5.37;;
38972;SDS011;25333;50.762;4.470;2023-06-10T08:35:28;8.17;;;5.60;;
38972;SDS011;25333;50.762;4.470;2023-06-10T08:37:54;7.03;;;5.90;;
38972;SDS011;25333;50.762;4.470;2023-06-10T08:40:19;6.10;;;5.50;;
38972;SDS011;25333;50.762;4.470;2023-06-10T08:42:45;6.75;;;5.38;;
38972;SDS011;25333;50.762;4.470;2023-06-10T08:45:17;5.72;;;5.10;;
38972;SDS011;25333;50.762;4.470;2023-06-10T08:47:44;6.32;;;5.38;;
38972;SDS011;25333;50.762;4.470;2023-06-10T08:50:11;6.77;;;5.63;;
38972;SDS011;25333;50.762;4.470;2023-06-10T08:52:37;6.10;;;5.40;;
38972;SDS011;25333;50.762;4.470;2023-06-10T08:55:12;6.63;;;5.50;;
38972;SDS011;25333;50.762;4.470;2023-06-10T08:57:41;6.35;;;5.70;;
38972;SDS011;25333;50.762;4.470;2023-06-10T09:00:07;5.82;;;5.22;;
38972;SDS011;25333;50.762;4.470;2023-06-10T09:02:33;5.63;;;5.13;;
38972;SDS011;25333;50.762;4.470;2023-06-10T09:05:02;6.75;;;4.95;;
38972;SDS011;25333;50.762;4.470;2023-06-10T09:07:29;4.93;;;4.37;;
38972;SDS011;25333;50.762;4.470;2023-06-10T09:10:01;5.75;;;4.55;;
38972;SDS011;25333;50.762;4.470;2023-06-10T09:12:33;8.00;;;5.60;;
38972;SDS011;25333;50.762;4.470;2023-06-10T09:15:00;5.82;;;5.20;;
38972;SDS011;25333;50.762;4.470;2023-06-10T09:17:26;6.70;;;4.80;;
38972;SDS011;25333;50.762;4.470;2023-06-10T09:19:52;6.68;;;5.90;;
38972;SDS011;25333;50.762;4.470;2023-06-10T09:22:20;5.20;;;4.70;;
38972;SDS011;25333;50.762;4.470;2023-06-10T09:24:51;5.75;;;4.50;;
38972;SDS011;25333;50.762;4.470;2023-06-10T09:27:55;5.15;;;4.55;;
38972;SDS011;25333;50.762;4.470;2023-06-10T09:30:30;5.75;;;4.55;;
38972;SDS011;25333;50.762;4.470;2023-06-10T09:33:02;4.45;;;3.83;;
38972;SDS011;25333;50.762;4.470;2023-06-10T09:35:34;5.70;;;4.82;;
38972;SDS011;25333;50.762;4.470;2023-06-10T09:38:00;5.50;;;4.40;;
38972;SDS011;25333;50.762;4.470;2023-06-10T09:40:27;5.30;;;3.63;;
38972;SDS011;25333;50.762;4.470;2023-06-10T09:42:54;5.43;;;4.13;;
38972;SDS011;25333;50.762;4.470;2023-06-10T09:45:21;5.03;;;4.00;;
38972;SDS011;25333;50.762;4.470;2023-06-10T09:47:51;4.93;;;4.35;;
38972;SDS011;25333;50.762;4.470;2023-06-10T09:50:18;6.03;;;4.07;;
38972;SDS011;25333;50.762;4.470;2023-06-10T09:52:45;4.97;;;3.55;;
38972;SDS011;25333;50.762;4.470;2023-06-10T09:55:12;4.80;;;3.83;;
38972;SDS011;25333;50.762;4.470;2023-06-10T09:57:37;5.60;;;4.57;;
38972;SDS011;25333;50.762;4.470;2023-06-10T10:00:08;5.07;;;4.28;;
38972;SDS011;25333;50.762;4.470;2023-06-10T10:02:53;5.82;;;4.82;;
38972;SDS011;25333;50.762;4.470;2023-06-10T10:05:19;4.27;;;3.53;;
38972;SDS011;25333;50.762;4.470;2023-06-10T10:07:47;5.88;;;3.85;;
38972;SDS011;25333;50.762;4.470;2023-06-10T10:10:17;5.70;;;4.10;;
38972;SDS011;25333;50.762;4.470;2023-06-10T10:12:44;5.80;;;4.43;;
38972;SDS011;25333;50.762;4.470;2023-06-10T10:15:12;5.90;;;3.92;;
38972;SDS011;25333;50.762;4.470;2023-06-10T10:17:39;8.93;;;5.80;;
38972;SDS011;25333;50.762;4.470;2023-06-10T10:20:08;6.25;;;4.30;;
38972;SDS011;25333;50.762;4.470;2023-06-10T10:22:39;4.28;;;3.72;;
38972;SDS011;25333;50.762;4.470;2023-06-10T10:25:09;5.45;;;4.03;;
38972;SDS011;25333;50.762;4.470;2023-06-10T10:27:54;5.72;;;4.30;;
38972;SDS011;25333;50.762;4.470;2023-06-10T10:30:42;4.88;;;4.38;;
38972;SDS011;25333;50.762;4.470;2023-06-10T10:33:15;4.78;;;4.28;;
38972;SDS011;25333;50.762;4.470;2023-06-10T10:35:43;4.22;;;3.83;;
38972;SDS011;25333;50.762;4.470;2023-06-10T10:38:11;4.35;;;3.95;;
38972;SDS011;25333;50.762;4.470;2023-06-10T10:40:37;5.05;;;3.83;;
38972;SDS011;25333;50.762;4.470;2023-06-10T10:43:04;4.93;;;3.80;;
38972;SDS011;25333;50.762;4.470;2023-06-10T10:45:30;5.07;;;4.40;;
38972;SDS011;25333;50.762;4.470;2023-06-10T10:47:58;4.53;;;4.07;;
38972;SDS011;25333;50.762;4.470;2023-06-10T10:50:33;5.10;;;4.28;;
38972;SDS011;25333;50.762;4.470;2023-06-10T10:53:00;7.27;;;4.33;;
38972;SDS011;25333;50.762;4.470;2023-06-10T10:55:28;5.83;;;4.20;;
38972;SDS011;25333;50.762;4.470;2023-06-10T10:57:55;5.38;;;4.00;;
38972;SDS011;25333;50.762;4.470;2023-06-10T11:00:31;4.60;;;3.78;;
38972;SDS011;25333;50.762;4.470;2023-06-10T11:02:58;4.95;;;4.20;;
38972;SDS011;25333;50.762;4.470;2023-06-10T11:08:13;4.88;;;3.75;;
38972;SDS011;25333;50.762;4.470;2023-06-10T11:10:40;6.43;;;3.97;;
38972;SDS011;25333;50.762;4.470;2023-06-10T11:13:16;4.25;;;3.72;;
38972;SDS011;25333;50.762;4.470;2023-06-10T11:15:46;5.20;;;4.30;;
38972;SDS011;25333;50.762;4.470;2023-06-10T11:18:28;4.93;;;3.70;;
38972;SDS011;25333;50.762;4.470;2023-06-10T11:21:08;5.20;;;3.92;;
38972;SDS011;25333;50.762;4.470;2023-06-10T11:23:35;4.90;;;4.18;;
38972;SDS011;25333;50.762;4.470;2023-06-10T11:26:14;4.03;;;3.60;;
38972;SDS011;25333;50.762;4.470;2023-06-10T11:31:48;3.10;;;2.28;;
38972;SDS011;25333;50.762;4.470;2023-06-10T11:34:20;3.75;;;2.80;;
38972;SDS011;25333;50.762;4.470;2023-06-10T11:36:51;4.00;;;2.90;;
38972;SDS011;25333;50.762;4.470;2023-06-10T11:39:18;4.05;;;3.35;;
38972;SDS011;25333;50.762;4.470;2023-06-10T11:41:49;5.43;;;3.50;;
38972;SDS011;25333;50.762;4.470;2023-06-10T11:44:20;4.78;;;3.83;;
38972;SDS011;25333;50.762;4.470;2023-06-10T11:46:52;5.53;;;3.85;;
38972;SDS011;25333;50.762;4.470;2023-06-10T11:52:28;4.47;;;3.88;;
38972;SDS011;25333;50.762;4.470;2023-06-10T11:55:19;4.57;;;3.72;;
38972;SDS011;25333;50.762;4.470;2023-06-10T11:57:53;4.73;;;3.70;;
38972;SDS011;25333;50.762;4.470;2023-06-10T12:00:22;4.22;;;3.83;;
38972;SDS011;25333;50.762;4.470;2023-06-10T12:02:59;5.90;;;4.03;;
38972;SDS011;25333;50.762;4.470;2023-06-10T12:05:26;5.10;;;3.93;;
38972;SDS011;25333;50.762;4.470;2023-06-10T12:08:15;5.50;;;4.47;;
38972;SDS011;25333;50.762;4.470;2023-06-10T12:10:41;5.28;;;4.78;;
38972;SDS011;25333;50.762;4.470;2023-06-10T12:13:08;6.30;;;4.00;;
38972;SDS011;25333;50.762;4.470;2023-06-10T12:15:34;4.95;;;4.45;;
38972;SDS011;25333;50.762;4.470;2023-06-10T12:18:00;4.63;;;4.18;;
38972;SDS011;25333;50.762;4.470;2023-06-10T12:20:27;5.95;;;4.35;;
38972;SDS011;25333;50.762;4.470;2023-06-10T12:23:08;4.93;;;3.90;;
38972;SDS011;25333;50.762;4.470;2023-06-10T12:25:38;5.38;;;4.30;;
38972;SDS011;25333;50.762;4.470;2023-06-10T12:28:25;4.75;;;3.78;;
38972;SDS011;25333;50.762;4.470;2023-06-10T12:33:32;5.25;;;4.50;;
38972;SDS011;25333;50.762;4.470;2023-06-10T12:35:58;5.07;;;4.38;;
38972;SDS011;25333;50.762;4.470;2023-06-10T12:38:25;6.10;;;4.03;;
38972;SDS011;25333;50.762;4.470;2023-06-10T12:40:54;6.35;;;3.95;;
38972;SDS011;25333;50.762;4.470;2023-06-10T12:43:27;14.13;;;5.95;;
38972;SDS011;25333;50.762;4.470;2023-06-10T12:45:53;5.93;;;4.40;;
38972;SDS011;25333;50.762;4.470;2023-06-10T12:48:20;6.77;;;5.23;;
38972;SDS011;25333;50.762;4.470;2023-06-10T12:50:54;6.03;;;4.30;;
38972;SDS011;25333;50.762;4.470;2023-06-10T12:53:21;6.47;;;5.03;;
38972;SDS011;25333;50.762;4.470;2023-06-10T12:55:54;5.18;;;4.40;;
38972;SDS011;25333;50.762;4.470;2023-06-10T12:58:20;6.15;;;4.57;;
38972;SDS011;25333;50.762;4.470;2023-06-10T13:00:47;4.80;;;3.72;;
38972;SDS011;25333;50.762;4.470;2023-06-10T13:03:13;5.25;;;4.57;;
38972;SDS011;25333;50.762;4.470;2023-06-10T13:05:39;4.93;;;4.40;;
38972;SDS011;25333;50.762;4.470;2023-06-10T13:08:06;5.50;;;4.35;;
38972;SDS011;25333;50.762;4.470;2023-06-10T13:10:32;4.45;;;4.05;;
38972;SDS011;25333;50.762;4.470;2023-06-10T13:13:02;4.05;;;3.58;;
38972;SDS011;25333;50.762;4.470;2023-06-10T13:15:30;6.07;;;4.63;;
38972;SDS011;25333;50.762;4.470;2023-06-10T13:18:05;4.47;;;3.97;;
38972;SDS011;25333;50.762;4.470;2023-06-10T13:20:30;6.70;;;4.30;;
38972;SDS011;25333;50.762;4.470;2023-06-10T13:22:56;5.87;;;4.20;;
38972;SDS011;25333;50.762;4.470;2023-06-10T13:25:22;6.05;;;4.93;;
38972;SDS011;25333;50.762;4.470;2023-06-10T13:27:50;4.95;;;4.45;;
38972;SDS011;25333;50.762;4.470;2023-06-10T13:30:15;5.05;;;4.50;;
38972;SDS011;25333;50.762;4.470;2023-06-10T13:32:41;6.40;;;4.67;;
38972;SDS011;25333;50.762;4.470;2023-06-10T13:35:07;5.18;;;4.68;;
38972;SDS011;25333;50.762;4.470;2023-06-10T13:37:33;5.40;;;3.92;;
38972;SDS011;25333;50.762;4.470;2023-06-10T13:39:59;4.78;;;4.13;;
38972;SDS011;25333;50.762;4.470;2023-06-10T13:42:25;4.97;;;4.47;;
38972;SDS011;25333;50.762;4.470;2023-06-10T13:44:51;4.90;;;4.40;;
38972;SDS011;25333;50.762;4.470;2023-06-10T13:47:17;4.47;;;3.70;;
38972;SDS011;25333;50.762;4.470;2023-06-10T13:49:42;8.02;;;4.63;;
38972;SDS011;25333;50.762;4.470;2023-06-10T13:52:08;6.22;;;4.60;;
38972;SDS011;25333;50.762;4.470;2023-06-10T13:54:34;5.43;;;4.50;;
38972;SDS011;25333;50.762;4.470;2023-06-10T13:57:03;5.20;;;4.43;;
38972;SDS011;25333;50.762;4.470;2023-06-10T13:59:29;8.13;;;4.47;;
38972;SDS011;25333;50.762;4.470;2023-06-10T14:01:55;5.73;;;4.47;;
38972;SDS011;25333;50.762;4.470;2023-06-10T14:04:21;6.35;;;5.03;;
38972;SDS011;25333;50.762;4.470;2023-06-10T14:06:47;5.15;;;4.20;;
38972;SDS011;25333;50.762;4.470;2023-06-10T14:09:13;5.90;;;4.13;;
38972;SDS011;25333;50.762;4.470;2023-06-10T14:11:39;5.93;;;4.70;;
38972;SDS011;25333;50.762;4.470;2023-06-10T14:14:04;5.97;;;4.23;;
38972;SDS011;25333;50.762;4.470;2023-06-10T14:16:30;4.47;;;4.05;;
38972;SDS011;25333;50.762;4.470;2023-06-10T14:18:56;5.10;;;4.03;;
38972;SDS011;25333;50.762;4.470;2023-06-10T14:21:23;5.32;;;4.40;;
38972;SDS011;25333;50.762;4.470;2023-06-10T14:23:48;9.60;;;5.32;;
38972;SDS011;25333;50.762;4.470;2023-06-10T14:26:16;5.38;;;3.80;;
38972;SDS011;25333;50.762;4.470;2023-06-10T14:28:42;4.87;;;4.10;;
38972;SDS011;25333;50.762;4.470;2023-06-10T14:31:07;5.50;;;4.22;;
38972;SDS011;25333;50.762;4.470;2023-06-10T14:33:33;5.63;;;4.20;;
38972;SDS011;25333;50.762;4.470;2023-06-10T14:35:59;5.45;;;4.03;;
38972;SDS011;25333;50.762;4.470;2023-06-10T14:38:24;5.60;;;4.70;;
38972;SDS011;25333;50.762;4.470;2023-06-10T14:40:51;4.73;;;4.00;;
38972;SDS011;25333;50.762;4.470;2023-06-10T14:43:17;5.20;;;4.53;;
38972;SDS011;25333;50.762;4.470;2023-06-10T14:45:43;5.57;;;4.03;;
38972;SDS011;25333;50.762;4.470;2023-06-10T14:48:09;5.38;;;3.97;;
38972;SDS011;25333;50.762;4.470;2023-06-10T14:50:35;5.78;;;4.07;;
38972;SDS011;25333;50.762;4.470;2023-06-10T14:53:02;5.13;;;4.30;;
38972;SDS011;25333;50.762;4.470;2023-06-10T14:55:28;6.28;;;4.28;;
38972;SDS011;25333;50.762;4.470;2023-06-10T14:57:54;5.03;;;4.53;;